createdAt,value
2019-04-16T00:00:51.938Z,93.60
2019-04-16T00:01:51.805Z,92.75
2019-04-16T00:02:52.225Z,93.13
2019-04-16T00:03:53.778Z,93.18
2019-04-16T00:04:53.697Z,93.27
2019-04-16T00:05:51.380Z,93.08
2019-04-16T00:06:51.274Z,93.99
2019-04-16T00:07:51.171Z,94.08
2019-04-16T00:08:51.063Z,94.18
2019-04-16T00:09:50.958Z,93.04
2019-04-16T00:10:50.862Z,93.37
2019-04-16T00:11:50.745Z,93.08
2019-04-16T00:12:50.640Z,93.18
2019-04-16T00:13:50.539Z,92.99
2019-04-16T00:14:50.425Z,93.37
2019-04-16T00:15:50.319Z,93.27
2019-04-16T00:16:50.216Z,93.56
2019-04-16T00:17:50.110Z,93.18
2019-04-16T00:18:57.248Z,93.08
2019-04-16T00:19:49.969Z,93.37
2019-04-16T00:20:49.790Z,93.27
2019-04-16T00:21:49.690Z,93.75
2019-04-16T00:22:49.577Z,93.75
2019-04-16T00:23:49.473Z,93.37
2019-04-16T00:24:49.371Z,93.46
2019-04-16T00:25:49.259Z,93.37
2019-04-16T00:26:49.154Z,93.46
2019-04-16T00:27:49.048Z,93.18
2019-04-16T00:28:48.942Z,93.65
2019-04-16T00:29:48.836Z,93.84
2019-04-16T00:30:48.729Z,93.27
2019-04-16T00:31:48.624Z,94.13
2019-04-16T00:32:48.517Z,93.94
2019-04-16T00:33:48.411Z,94.03
2019-04-16T00:34:48.305Z,93.84
2019-04-16T00:35:48.201Z,93.46
2019-04-16T00:36:48.801Z,94.23
2019-04-16T00:37:51.355Z,94.03
2019-04-16T00:38:47.948Z,93.94
2019-04-16T00:39:47.775Z,93.84
2019-04-16T00:40:47.670Z,94.23
2019-04-16T00:41:47.563Z,93.94
2019-04-16T00:42:47.454Z,93.94
2019-04-16T00:43:47.350Z,93.65
2019-04-16T00:44:47.249Z,94.23
2019-04-16T00:45:47.138Z,94.03
2019-04-16T00:46:47.034Z,93.75
2019-04-16T00:47:48.008Z,93.94
2019-04-16T00:48:46.821Z,94.32
2019-04-16T00:49:46.714Z,93.94
2019-04-16T00:50:46.606Z,94.13
2019-04-16T00:51:46.505Z,94.03
2019-04-16T00:52:46.310Z,94.23
2019-04-16T00:53:46.204Z,93.56
2019-04-16T00:54:46.096Z,94.23
2019-04-16T00:55:45.991Z,93.46
2019-04-16T00:56:46.746Z,93.37
2019-04-16T00:57:48.424Z,93.56
2019-04-16T00:58:45.673Z,94.13
2019-04-16T00:59:45.570Z,94.13
2019-04-16T01:00:45.459Z,94.13
2019-04-16T01:01:45.359Z,94.03
2019-04-16T01:02:46.977Z,94.23
2019-04-16T01:03:45.145Z,93.56
2019-04-16T01:04:45.033Z,94.03
2019-04-16T01:05:44.929Z,94.03
2019-04-16T01:06:44.822Z,93.94
2019-04-16T01:07:44.717Z,93.65
2019-04-16T01:08:54.629Z,94.32
2019-04-16T01:09:44.504Z,94.03
2019-04-16T01:10:44.397Z,93.94
2019-04-16T01:11:46.124Z,94.13
2019-04-16T01:12:44.185Z,94.13
2019-04-16T01:13:44.079Z,94.13
2019-04-16T01:14:43.970Z,94.03
2019-04-16T01:15:43.869Z,93.94
2019-04-16T01:16:43.797Z,94.18
2019-04-16T01:17:43.653Z,93.84
2019-04-16T01:18:43.547Z,93.99
2019-04-16T01:19:43.438Z,94.08
2019-04-16T01:20:44.037Z,94.18
2019-04-16T01:21:44.800Z,94.93
2019-04-16T01:22:46.587Z,94.23
2019-04-16T01:23:43.013Z,94.13
2019-04-16T01:24:42.909Z,94.03
2019-04-16T01:25:42.801Z,94.03
2019-04-16T01:26:42.693Z,94.23
2019-04-16T01:27:42.588Z,94.27
2019-04-16T01:28:42.482Z,93.94
2019-04-16T01:29:42.376Z,93.89
2019-04-16T01:30:42.268Z,93.80
2019-04-16T01:31:42.162Z,94.23
2019-04-16T01:32:42.710Z,94.27
2019-04-16T01:33:43.445Z,94.23
2019-04-16T01:34:41.841Z,93.99
2019-04-16T01:35:41.783Z,94.08
2019-04-16T01:36:41.630Z,94.18
2019-04-16T01:37:41.532Z,94.08
2019-04-16T01:38:41.417Z,94.08
2019-04-16T01:39:41.308Z,94.18
2019-04-16T01:40:41.204Z,93.99
2019-04-16T01:41:41.097Z,94.18
2019-04-16T01:42:40.989Z,94.18
2019-04-16T01:43:40.884Z,94.18
2019-04-16T01:44:40.778Z,93.99
2019-04-16T01:45:40.669Z,94.27
2019-04-16T01:46:40.563Z,94.08
2019-04-16T01:47:40.457Z,94.27
2019-04-16T01:48:40.352Z,94.18
2019-04-16T01:49:42.152Z,94.46
2019-04-16T01:50:43.538Z,94.08
2019-04-16T01:51:40.032Z,94.27
2019-04-16T01:52:39.925Z,94.18
2019-04-16T01:53:39.825Z,94.27
2019-04-16T01:54:39.749Z,94.27
2019-04-16T01:55:42.307Z,94.18
2019-04-16T01:56:39.498Z,94.93
2019-04-16T01:57:39.391Z,94.08
2019-04-16T01:58:39.284Z,94.74
2019-04-16T01:59:39.178Z,94.08
2019-04-16T02:00:39.797Z,94.18
2019-04-16T02:01:40.307Z,93.99
2019-04-16T02:02:38.861Z,93.99
2019-04-16T02:03:38.751Z,94.27
2019-04-16T02:04:38.644Z,94.08
2019-04-16T02:05:38.540Z,94.27
2019-04-16T02:06:38.432Z,94.93
2019-04-16T02:07:38.325Z,94.56
2019-04-16T02:08:38.219Z,94.08
2019-04-16T02:09:38.112Z,94.08
2019-04-16T02:10:38.362Z,93.99
2019-04-16T02:11:38.853Z,94.46
2019-04-16T02:12:37.795Z,94.37
2019-04-16T02:13:37.737Z,94.27
2019-04-16T02:14:37.577Z,94.56
2019-04-16T02:15:37.472Z,94.08
2019-04-16T02:16:37.366Z,94.18
2019-04-16T02:17:37.256Z,93.89
2019-04-16T02:18:37.150Z,94.08
2019-04-16T02:19:37.044Z,93.61
2019-04-16T02:20:39.240Z,93.80
2019-04-16T02:21:38.965Z,93.70
2019-04-16T02:22:36.723Z,93.70
2019-04-16T02:23:36.616Z,93.80
2019-04-16T02:24:36.510Z,93.99
2019-04-16T02:25:36.403Z,93.99
2019-04-16T02:26:36.296Z,94.27
2019-04-16T02:27:36.190Z,94.08
2019-04-16T02:28:36.082Z,94.27
2019-04-16T02:29:35.977Z,93.89
2019-04-16T02:30:39.022Z,93.61
2019-04-16T02:31:35.775Z,93.89
2019-04-16T02:32:35.700Z,93.89
2019-04-16T02:33:35.549Z,93.99
2019-04-16T02:34:35.452Z,93.89
2019-04-16T02:35:35.338Z,93.70
2019-04-16T02:36:35.229Z,94.27
2019-04-16T02:37:36.280Z,93.41
2019-04-16T02:38:35.015Z,93.41
2019-04-16T02:39:47.796Z,93.70
2019-04-16T02:40:34.802Z,93.41
2019-04-16T02:41:34.709Z,93.51
2019-04-16T02:42:34.587Z,93.70
2019-04-16T02:43:39.791Z,93.80
2019-04-16T02:44:34.376Z,93.61
2019-04-16T02:45:34.269Z,93.32
2019-04-16T02:46:34.158Z,93.51
2019-04-16T02:47:39.962Z,93.51
2019-04-16T02:48:33.947Z,93.70
2019-04-16T02:49:33.839Z,93.89
2019-04-16T02:50:33.743Z,93.80
2019-04-16T02:51:39.903Z,93.70
2019-04-16T02:52:33.518Z,93.61
2019-04-16T02:53:33.427Z,94.08
2019-04-16T02:54:34.473Z,94.18
2019-04-16T02:55:33.197Z,93.41
2019-04-16T02:56:33.094Z,94.08
2019-04-16T02:57:32.984Z,93.61
2019-04-16T02:58:34.425Z,93.41
2019-04-16T02:59:32.770Z,93.32
2019-04-16T03:00:32.663Z,93.46
2019-04-16T03:01:32.555Z,94.04
2019-04-16T03:02:32.457Z,93.56
2019-04-16T03:03:32.341Z,93.84
2019-04-16T03:04:32.234Z,94.37
2019-04-16T03:05:32.132Z,93.84
2019-04-16T03:06:32.538Z,94.23
2019-04-16T03:07:32.751Z,93.70
2019-04-16T03:08:33.389Z,93.65
2019-04-16T03:09:31.723Z,94.32
2019-04-16T03:10:31.645Z,93.70
2019-04-16T03:11:31.490Z,94.23
2019-04-16T03:12:31.378Z,94.04
2019-04-16T03:13:31.358Z,94.04
2019-04-16T03:14:31.253Z,93.65
2019-04-16T03:15:33.709Z,94.08
2019-04-16T03:16:31.035Z,93.80
2019-04-16T03:17:30.928Z,93.70
2019-04-16T03:18:30.820Z,93.94
2019-04-16T03:19:30.713Z,94.27
2019-04-16T03:20:30.605Z,94.04
2019-04-16T03:21:30.500Z,93.84
2019-04-16T03:22:30.552Z,93.37
2019-04-16T03:23:30.286Z,93.37
2019-04-16T03:24:30.181Z,93.56
2019-04-16T03:25:30.071Z,93.51
2019-04-16T03:26:29.964Z,93.41
2019-04-16T03:27:29.857Z,93.23
2019-04-16T03:28:29.760Z,93.84
2019-04-16T03:29:30.435Z,94.13
2019-04-16T03:30:29.547Z,93.84
2019-04-16T03:31:29.430Z,93.84
2019-04-16T03:32:33.193Z,94.04
2019-04-16T03:33:29.218Z,93.94
2019-04-16T03:34:29.110Z,94.13
2019-04-16T03:35:29.000Z,93.84
2019-04-16T03:36:29.532Z,94.04
2019-04-16T03:37:30.283Z,94.13
2019-04-16T03:38:28.679Z,93.84
2019-04-16T03:39:28.572Z,94.04
2019-04-16T03:40:28.465Z,94.32
2019-04-16T03:41:28.359Z,94.32
2019-04-16T03:42:28.259Z,94.32
2019-04-16T03:43:29.509Z,93.84
2019-04-16T03:44:28.042Z,93.75
2019-04-16T03:45:27.927Z,94.13
2019-04-16T03:46:27.822Z,94.04
2019-04-16T03:47:27.714Z,94.23
2019-04-16T03:48:27.650Z,94.32
2019-04-16T03:49:28.388Z,94.23
2019-04-16T03:50:31.041Z,94.32
2019-04-16T03:51:27.285Z,94.13
2019-04-16T03:52:27.179Z,94.04
2019-04-16T03:53:27.073Z,94.13
2019-04-16T03:54:26.964Z,94.23
2019-04-16T03:55:26.857Z,94.23
2019-04-16T03:56:27.538Z,94.23
2019-04-16T03:57:26.640Z,94.23
2019-04-16T03:58:26.535Z,94.13
2019-04-16T03:59:26.425Z,94.23
2019-04-16T04:00:26.319Z,94.23
2019-04-16T04:01:26.211Z,94.04
2019-04-16T04:02:26.106Z,94.13
2019-04-16T04:03:26.773Z,94.04
2019-04-16T04:04:28.902Z,94.23
2019-04-16T04:05:25.782Z,94.23
2019-04-16T04:06:25.704Z,94.04
2019-04-16T04:07:25.628Z,94.23
2019-04-16T04:08:25.462Z,93.94
2019-04-16T04:09:25.355Z,94.42
2019-04-16T04:10:30.798Z,94.32
2019-04-16T04:11:25.140Z,94.32
2019-04-16T04:12:27.668Z,94.23
2019-04-16T04:13:24.929Z,94.42
2019-04-16T04:14:24.818Z,94.04
2019-04-16T04:15:26.325Z,94.13
2019-04-16T04:16:24.520Z,94.23
2019-04-16T04:17:24.414Z,94.04
2019-04-16T04:18:24.303Z,94.13
2019-04-16T04:19:24.194Z,93.75
2019-04-16T04:20:24.090Z,94.23
2019-04-16T04:21:23.983Z,93.65
2019-04-16T04:22:25.824Z,94.13
2019-04-16T04:23:25.481Z,94.04
2019-04-16T04:24:23.663Z,94.23
2019-04-16T04:25:23.632Z,94.04
2019-04-16T04:26:23.445Z,94.04
2019-04-16T04:27:23.343Z,94.08
2019-04-16T04:28:23.232Z,93.65
2019-04-16T04:29:24.684Z,93.65
2019-04-16T04:30:25.598Z,93.65
2019-04-16T04:31:22.916Z,93.41
2019-04-16T04:32:22.805Z,93.41
2019-04-16T04:33:22.698Z,92.94
2019-04-16T04:34:22.592Z,92.76
2019-04-16T04:35:22.484Z,92.57
2019-04-16T04:36:22.979Z,92.76
2019-04-16T04:37:22.270Z,92.94
2019-04-16T04:38:22.160Z,92.76
2019-04-16T04:39:22.057Z,92.76
2019-04-16T04:40:21.949Z,92.76
2019-04-16T04:41:23.431Z,92.28
2019-04-16T04:42:21.734Z,92.28
2019-04-16T04:43:21.637Z,91.80
2019-04-16T04:44:21.603Z,91.19
2019-04-16T04:45:21.417Z,90.62
2019-04-16T04:46:21.307Z,90.43
2019-04-16T04:47:21.203Z,89.10
2019-04-16T04:48:24.136Z,88.43
2019-04-16T04:49:20.993Z,88.43
2019-04-16T04:50:20.887Z,87.68
2019-04-16T04:51:20.779Z,87.87
2019-04-16T04:52:20.697Z,87.87
2019-04-16T04:53:20.567Z,87.39
2019-04-16T04:54:22.631Z,87.11
2019-04-16T04:55:20.358Z,86.72
2019-04-16T04:56:20.448Z,86.54
2019-04-16T04:57:20.144Z,86.07
2019-04-16T04:58:20.038Z,85.78
2019-04-16T04:59:19.930Z,85.11
2019-04-16T05:00:19.827Z,84.83
2019-04-16T05:01:19.721Z,84.83
2019-04-16T05:02:19.614Z,85.02
2019-04-16T05:03:19.584Z,84.68
2019-04-16T05:04:20.965Z,83.64
2019-04-16T05:05:24.552Z,82.31
2019-04-16T05:06:19.192Z,81.45
2019-04-16T05:07:19.087Z,81.74
2019-04-16T05:08:18.981Z,81.45
2019-04-16T05:09:18.876Z,80.88
2019-04-16T05:10:18.785Z,80.60
2019-04-16T05:11:18.667Z,79.31
2019-04-16T05:12:21.276Z,80.13
2019-04-16T05:13:18.461Z,79.97
2019-04-16T05:14:18.545Z,79.41
2019-04-16T05:15:18.246Z,79.88
2019-04-16T05:16:18.141Z,78.83
2019-04-16T05:17:18.036Z,77.98
2019-04-16T05:18:17.934Z,77.12
2019-04-16T05:19:18.011Z,76.88
2019-04-16T05:20:17.722Z,77.12
2019-04-16T05:21:19.072Z,77.70
2019-04-16T05:22:20.623Z,78.08
2019-04-16T05:23:17.492Z,77.26
2019-04-16T05:24:17.441Z,75.64
2019-04-16T05:25:17.200Z,75.07
2019-04-16T05:26:17.093Z,74.41
2019-04-16T05:27:16.997Z,74.03
2019-04-16T05:28:16.887Z,73.88
2019-04-16T05:29:18.135Z,73.11
2019-04-16T05:30:20.452Z,73.11
2019-04-16T05:31:16.574Z,72.07
2019-04-16T05:32:16.469Z,72.22
2019-04-16T05:33:16.365Z,72.22
2019-04-16T05:34:17.900Z,73.27
2019-04-16T05:35:16.159Z,73.55
2019-04-16T05:36:16.060Z,74.03
2019-04-16T05:37:16.396Z,73.93
2019-04-16T05:38:15.846Z,73.84
2019-04-16T05:39:15.742Z,73.74
2019-04-16T05:40:15.639Z,73.84
2019-04-16T05:41:20.775Z,73.65
2019-04-16T05:42:15.468Z,73.55
2019-04-16T05:43:15.330Z,73.65
2019-04-16T05:44:15.230Z,73.74
2019-04-16T05:45:15.120Z,73.18
2019-04-16T05:46:15.019Z,72.99
2019-04-16T05:47:17.880Z,72.22
2019-04-16T05:48:14.812Z,72.70
2019-04-16T05:49:14.706Z,72.32
2019-04-16T05:50:14.605Z,72.07
2019-04-16T05:51:14.530Z,71.59
2019-04-16T05:52:14.553Z,71.78
2019-04-16T05:53:14.294Z,71.31
2019-04-16T05:54:14.192Z,70.39
2019-04-16T05:55:17.939Z,70.20
2019-04-16T05:56:13.994Z,69.35
2019-04-16T05:57:13.885Z,69.76
2019-04-16T05:58:13.780Z,68.33
2019-04-16T05:59:13.677Z,68.33
2019-04-16T06:00:13.575Z,67.57
2019-04-16T06:01:14.125Z,67.00
2019-04-16T06:02:15.083Z,67.10
2019-04-16T06:03:13.267Z,67.10
2019-04-16T06:04:13.167Z,66.56
2019-04-16T06:05:13.460Z,65.86
2019-04-16T06:06:12.966Z,66.14
2019-04-16T06:07:12.859Z,65.80
2019-04-16T06:08:13.067Z,65.13
2019-04-16T06:09:13.281Z,64.59
2019-04-16T06:10:17.035Z,63.73
2019-04-16T06:11:26.712Z,63.64
2019-04-16T06:12:12.348Z,62.43
2019-04-16T06:13:12.913Z,61.60
2019-04-16T06:14:16.790Z,60.94
2019-04-16T06:15:12.045Z,60.27
2019-04-16T06:16:11.942Z,60.81
2019-04-16T06:17:11.843Z,60.59
2019-04-16T06:18:11.740Z,61.64
2019-04-16T06:19:12.193Z,61.73
2019-04-16T06:20:11.542Z,62.30
2019-04-16T06:21:11.482Z,63.07
2019-04-16T06:22:11.361Z,61.76
2019-04-16T06:23:11.236Z,61.57
2019-04-16T06:24:11.137Z,60.69
2019-04-16T06:25:11.312Z,61.00
2019-04-16T06:26:14.542Z,60.81
2019-04-16T06:27:10.839Z,60.72
2019-04-16T06:28:10.735Z,60.84
2019-04-16T06:29:10.639Z,60.05
2019-04-16T06:30:10.535Z,59.95
2019-04-16T06:31:10.456Z,60.72
2019-04-16T06:32:11.845Z,60.72
2019-04-16T06:33:10.235Z,60.55
2019-04-16T06:34:10.135Z,59.25
2019-04-16T06:35:10.039Z,59.03
2019-04-16T06:36:09.938Z,58.72
2019-04-16T06:37:09.836Z,59.76
2019-04-16T06:38:09.736Z,60.43
2019-04-16T06:39:09.638Z,59.86
2019-04-16T06:40:09.538Z,60.55
2019-04-16T06:41:09.460Z,59.99
2019-04-16T06:42:09.408Z,59.31
2019-04-16T06:43:09.330Z,59.79
2019-04-16T06:44:09.140Z,60.14
2019-04-16T06:45:09.040Z,60.55
2019-04-16T06:46:09.423Z,59.99
2019-04-16T06:47:11.107Z,58.84
2019-04-16T06:48:12.859Z,59.41
2019-04-16T06:49:08.643Z,58.65
2019-04-16T06:50:08.545Z,58.58
2019-04-16T06:51:11.686Z,57.92
2019-04-16T06:52:08.349Z,57.82
2019-04-16T06:53:08.249Z,57.37
2019-04-16T06:54:08.148Z,56.70
2019-04-16T06:55:08.051Z,56.41
2019-04-16T06:56:08.684Z,56.80
2019-04-16T06:57:09.684Z,57.09
2019-04-16T06:58:07.757Z,56.23
2019-04-16T06:59:07.657Z,55.40
2019-04-16T07:00:07.557Z,55.40
2019-04-16T07:01:07.460Z,55.04
2019-04-16T07:02:07.572Z,54.82
2019-04-16T07:03:07.264Z,53.99
2019-04-16T07:04:07.165Z,54.08
2019-04-16T07:05:07.067Z,53.41
2019-04-16T07:06:06.975Z,53.41
2019-04-16T07:07:08.398Z,52.84
2019-04-16T07:08:06.773Z,53.49
2019-04-16T07:09:06.677Z,54.53
2019-04-16T07:10:06.579Z,54.25
2019-04-16T07:11:06.483Z,54.27
2019-04-16T07:12:06.385Z,53.77
2019-04-16T07:13:10.243Z,53.77
2019-04-16T07:14:06.194Z,54.38
2019-04-16T07:15:06.094Z,56.29
2019-04-16T07:16:05.994Z,56.38
2019-04-16T07:17:05.896Z,56.36
2019-04-16T07:18:06.339Z,56.74
2019-04-16T07:19:10.185Z,57.41
2019-04-16T07:20:05.615Z,57.70
2019-04-16T07:21:05.505Z,58.62
2019-04-16T07:22:05.413Z,59.22
2019-04-16T07:23:05.339Z,59.48
2019-04-16T07:24:05.308Z,60.24
2019-04-16T07:25:05.789Z,60.40
2019-04-16T07:26:05.031Z,61.54
2019-04-16T07:27:04.980Z,61.83
2019-04-16T07:28:04.816Z,62.27
2019-04-16T07:29:04.797Z,62.56
2019-04-16T07:30:07.402Z,63.42
2019-04-16T07:31:04.599Z,62.85
2019-04-16T07:32:04.512Z,63.32
2019-04-16T07:33:04.387Z,63.51
2019-04-16T07:34:04.216Z,63.76
2019-04-16T07:35:04.116Z,63.67
2019-04-16T07:36:04.019Z,63.67
2019-04-16T07:37:03.915Z,64.34
2019-04-16T07:38:05.602Z,64.43
2019-04-16T07:39:05.055Z,64.72
2019-04-16T07:40:08.650Z,65.19
2019-04-16T07:41:03.512Z,64.81
2019-04-16T07:42:10.741Z,65.19
2019-04-16T07:43:03.485Z,65.00
2019-04-16T07:44:08.100Z,64.90
2019-04-16T07:45:03.109Z,65.19
2019-04-16T07:46:03.008Z,64.05
2019-04-16T07:47:02.905Z,64.24
2019-04-16T07:48:05.665Z,65.19
2019-04-16T07:49:02.702Z,65.29
2019-04-16T07:50:02.629Z,64.24
2019-04-16T07:51:04.880Z,64.43
2019-04-16T07:52:07.027Z,64.47
2019-04-16T07:53:02.294Z,63.70
2019-04-16T07:54:03.132Z,62.85
2019-04-16T07:55:02.096Z,62.85
2019-04-16T07:56:02.011Z,62.27
2019-04-16T07:57:01.886Z,62.94
2019-04-16T07:58:01.787Z,62.46
2019-04-16T07:59:01.868Z,61.90
2019-04-16T08:00:01.591Z,61.70
2019-04-16T08:01:01.618Z,62.08
2019-04-16T08:02:01.380Z,61.80
2019-04-16T08:03:01.305Z,61.80
2019-04-16T08:04:02.632Z,62.40
2019-04-16T08:05:01.073Z,61.93
2019-04-16T08:06:00.969Z,61.93
2019-04-16T08:07:01.176Z,62.12
2019-04-16T08:08:00.764Z,61.76
2019-04-16T08:09:00.662Z,61.38
2019-04-16T08:10:02.092Z,60.62
2019-04-16T08:11:00.459Z,60.52
2019-04-16T08:12:00.357Z,60.24
2019-04-16T08:13:00.821Z,59.86
2019-04-16T08:14:00.370Z,60.62
2019-04-16T08:15:12.430Z,60.05
2019-04-16T08:15:59.948Z,60.24
2019-04-16T08:16:59.848Z,59.38
2019-04-16T08:17:59.899Z,59.48
2019-04-16T08:18:59.641Z,59.19
2019-04-16T08:19:59.543Z,59.19
2019-04-16T08:21:01.943Z,58.04
2019-04-16T08:21:59.384Z,57.76
2019-04-16T08:22:59.273Z,58.55
2019-04-16T08:23:59.149Z,58.07
2019-04-16T08:25:02.878Z,57.60
2019-04-16T08:26:03.507Z,57.41
2019-04-16T08:26:58.829Z,56.84
2019-04-16T08:27:58.730Z,56.65
2019-04-16T08:28:58.628Z,56.26
2019-04-16T08:30:02.138Z,56.17
2019-04-16T08:30:58.421Z,55.50
2019-04-16T08:31:58.320Z,55.41
2019-04-16T08:32:58.218Z,55.02
2019-04-16T08:33:58.158Z,55.41
2019-04-16T08:34:58.013Z,55.31
2019-04-16T08:35:57.912Z,55.60
2019-04-16T08:36:57.894Z,55.24
2019-04-16T08:37:58.501Z,56.10
2019-04-16T08:38:57.713Z,55.15
2019-04-16T08:39:57.705Z,54.38
2019-04-16T08:40:57.404Z,54.57
2019-04-16T08:41:57.526Z,54.57
2019-04-16T08:42:58.198Z,54.19
2019-04-16T08:43:59.750Z,54.67
2019-04-16T08:44:56.997Z,53.91
2019-04-16T08:45:56.898Z,53.91
2019-04-16T08:46:58.642Z,53.05
2019-04-16T08:47:56.801Z,53.14
2019-04-16T08:48:56.639Z,52.86
2019-04-16T08:49:56.490Z,53.14
2019-04-16T08:50:58.504Z,53.33
2019-04-16T08:51:56.405Z,53.05
2019-04-16T08:52:56.184Z,52.00
2019-04-16T08:53:56.083Z,52.19
2019-04-16T08:54:55.980Z,52.86
2019-04-16T08:55:56.158Z,53.27
2019-04-16T08:56:55.778Z,51.54
2019-04-16T08:57:55.965Z,51.74
2019-04-16T08:59:00.026Z,51.54
2019-04-16T08:59:55.547Z,52.03
2019-04-16T09:00:55.373Z,51.45
2019-04-16T09:01:55.331Z,50.98
2019-04-16T09:02:57.797Z,51.35
2019-04-16T09:03:55.068Z,51.74
2019-04-16T09:04:54.967Z,51.45
2019-04-16T09:05:54.864Z,50.59
2019-04-16T09:06:54.763Z,50.21
2019-04-16T09:07:54.662Z,50.59
2019-04-16T09:08:54.560Z,49.83
2019-04-16T09:09:57.530Z,48.97
2019-04-16T09:10:54.357Z,48.59
2019-04-16T09:11:54.257Z,48.30
2019-04-16T09:13:03.438Z,49.16
2019-04-16T09:13:54.053Z,49.07
2019-04-16T09:14:55.921Z,48.78
2019-04-16T09:15:53.852Z,49.07
2019-04-16T09:16:53.751Z,48.97
2019-04-16T09:17:53.653Z,48.68
2019-04-16T09:18:53.543Z,48.13
2019-04-16T09:19:53.447Z,47.66
2019-04-16T09:20:53.344Z,47.27
2019-04-16T09:21:53.259Z,47.66
2019-04-16T09:22:54.477Z,47.18
2019-04-16T09:23:57.162Z,46.22
2019-04-16T09:24:52.937Z,45.82
2019-04-16T09:25:52.837Z,46.01
2019-04-16T09:26:55.613Z,46.77
2019-04-16T09:27:52.635Z,46.68
2019-04-16T09:28:52.534Z,46.22
2019-04-16T09:29:52.432Z,46.03
2019-04-16T09:30:52.333Z,45.94
2019-04-16T09:31:55.293Z,45.46
2019-04-16T09:32:52.128Z,44.41
2019-04-16T09:33:52.030Z,44.43
2019-04-16T09:34:51.934Z,44.26
2019-04-16T09:35:51.823Z,44.17
2019-04-16T09:36:51.732Z,43.16
2019-04-16T09:37:51.626Z,42.80
2019-04-16T09:38:51.520Z,41.09
2019-04-16T09:39:51.419Z,39.85
2019-04-16T09:40:51.410Z,39.28
2019-04-16T09:41:51.301Z,39.18
2019-04-16T09:42:51.235Z,39.08
2019-04-16T09:43:53.819Z,39.22
2019-04-16T09:44:51.004Z,38.83
2019-04-16T09:45:50.907Z,38.26
2019-04-16T09:46:52.036Z,38.18
2019-04-16T09:47:50.706Z,37.32
2019-04-16T09:48:50.611Z,37.60
2019-04-16T09:49:50.514Z,37.09
2019-04-16T09:50:50.417Z,36.98
2019-04-16T09:51:51.083Z,37.85
2019-04-16T09:52:52.472Z,37.95
2019-04-16T09:53:50.127Z,38.14
2019-04-16T09:54:50.035Z,38.22
2019-04-16T09:55:50.584Z,38.22
2019-04-16T09:56:49.842Z,38.43
2019-04-16T09:57:49.750Z,38.64
2019-04-16T09:58:49.656Z,37.80
2019-04-16T09:59:49.561Z,37.51
2019-04-16T10:00:49.469Z,37.03
2019-04-16T10:01:49.448Z,36.63
2019-04-16T10:02:49.283Z,36.34
2019-04-16T10:03:49.244Z,37.28
2019-04-16T10:04:49.119Z,38.53
2019-04-16T10:05:49.003Z,39.29
2019-04-16T10:06:48.910Z,38.41
2019-04-16T10:07:48.854Z,39.47
2019-04-16T10:08:48.724Z,38.98
2019-04-16T10:09:51.456Z,39.48
2019-04-16T10:10:48.574Z,39.18
2019-04-16T10:11:48.446Z,39.18
2019-04-16T10:12:48.354Z,39.35
2019-04-16T10:13:48.267Z,40.31
2019-04-16T10:14:48.164Z,40.59
2019-04-16T10:15:48.094Z,40.23
2019-04-16T10:16:47.996Z,39.85
2019-04-16T10:17:47.898Z,39.18
2019-04-16T10:18:47.821Z,39.08
2019-04-16T10:19:47.700Z,39.10
2019-04-16T10:20:47.613Z,38.91
2019-04-16T10:21:53.381Z,38.51
2019-04-16T10:22:47.522Z,38.12
2019-04-16T10:23:47.339Z,39.18
2019-04-16T10:24:47.236Z,39.56
2019-04-16T10:25:47.175Z,39.18
2019-04-16T10:26:47.039Z,39.35
2019-04-16T10:27:46.946Z,39.35
2019-04-16T10:28:46.852Z,39.16
2019-04-16T10:29:46.764Z,40.21
2019-04-16T10:30:46.664Z,40.50
2019-04-16T10:31:46.656Z,40.31
2019-04-16T10:32:46.489Z,39.65
2019-04-16T10:33:46.370Z,39.25
2019-04-16T10:34:46.278Z,39.45
2019-04-16T10:35:46.198Z,39.14
2019-04-16T10:36:46.106Z,39.12
2019-04-16T10:37:45.990Z,40.08
2019-04-16T10:38:45.894Z,40.86
2019-04-16T10:39:45.824Z,40.19
2019-04-16T10:40:45.700Z,40.00
2019-04-16T10:41:45.603Z,39.40
2019-04-16T10:42:45.506Z,39.89
2019-04-16T10:43:45.466Z,40.08
2019-04-16T10:44:45.313Z,40.17
2019-04-16T10:45:45.282Z,40.46
2019-04-16T10:46:45.199Z,40.15
2019-04-16T10:47:45.047Z,40.44
2019-04-16T10:48:44.979Z,40.72
2019-04-16T10:49:44.825Z,41.01
2019-04-16T10:50:44.740Z,40.72
2019-04-16T10:51:44.629Z,41.01
2019-04-16T10:52:44.538Z,41.11
2019-04-16T10:53:44.477Z,41.78
2019-04-16T10:54:44.430Z,42.44
2019-04-16T10:55:44.234Z,42.35
2019-04-16T10:56:44.143Z,42.37
2019-04-16T10:57:44.101Z,41.89
2019-04-16T10:58:43.961Z,42.08
2019-04-16T10:59:43.868Z,41.61
2019-04-16T11:00:43.745Z,41.51
2019-04-16T11:01:43.644Z,41.61
2019-04-16T11:02:43.546Z,41.68
2019-04-16T11:03:43.445Z,42.07
2019-04-16T11:04:43.931Z,42.35
2019-04-16T11:05:43.275Z,42.35
2019-04-16T11:06:43.216Z,41.87
2019-04-16T11:07:43.113Z,41.58
2019-04-16T11:08:42.953Z,42.25
2019-04-16T11:09:42.875Z,42.07
2019-04-16T11:10:42.785Z,42.08
2019-04-16T11:11:42.650Z,42.08
2019-04-16T11:12:42.666Z,41.70
2019-04-16T11:13:42.481Z,41.03
2019-04-16T11:14:42.351Z,40.36
2019-04-16T11:15:42.272Z,39.89
2019-04-16T11:16:42.165Z,39.86
2019-04-16T11:17:42.059Z,39.86
2019-04-16T11:18:41.968Z,40.36
2019-04-16T11:19:41.855Z,41.03
2019-04-16T11:20:41.754Z,40.55
2019-04-16T11:21:41.653Z,40.36
2019-04-16T11:22:41.553Z,39.60
2019-04-16T11:23:41.455Z,39.03
2019-04-16T11:24:41.354Z,39.22
2019-04-16T11:25:41.255Z,38.93
2019-04-16T11:26:44.263Z,39.12
2019-04-16T11:27:41.140Z,39.12
2019-04-16T11:28:40.977Z,38.83
2019-04-16T11:29:42.029Z,39.22
2019-04-16T11:30:40.759Z,39.40
2019-04-16T11:31:40.680Z,39.22
2019-04-16T11:32:40.562Z,39.03
2019-04-16T11:33:40.490Z,39.03
2019-04-16T11:34:40.359Z,39.03
2019-04-16T11:35:40.301Z,39.12
2019-04-16T11:36:40.193Z,39.22
2019-04-16T11:37:43.577Z,39.98
2019-04-16T11:38:39.964Z,39.89
2019-04-16T11:39:39.862Z,39.03
2019-04-16T11:40:41.165Z,38.45
2019-04-16T11:41:39.661Z,38.17
2019-04-16T11:42:39.560Z,37.88
2019-04-16T11:43:39.461Z,38.17
2019-04-16T11:44:39.385Z,38.93
2019-04-16T11:45:39.309Z,39.69
2019-04-16T11:46:39.186Z,39.89
2019-04-16T11:47:39.152Z,39.81
2019-04-16T11:48:39.014Z,39.43
2019-04-16T11:49:38.911Z,38.95
2019-04-16T11:50:38.781Z,39.14
2019-04-16T11:51:38.673Z,39.23
2019-04-16T11:52:40.068Z,39.33
2019-04-16T11:53:38.478Z,40.29
2019-04-16T11:54:38.366Z,39.90
2019-04-16T11:55:38.292Z,39.14
2019-04-16T11:56:38.208Z,39.14
2019-04-16T11:57:38.086Z,39.62
2019-04-16T11:58:37.968Z,39.81
2019-04-16T11:59:38.323Z,39.33
2019-04-16T12:00:37.797Z,38.35
2019-04-16T12:01:37.713Z,39.03
2019-04-16T12:02:38.794Z,39.12
2019-04-16T12:03:37.491Z,39.14
2019-04-16T12:04:37.394Z,39.04
2019-04-16T12:05:37.302Z,39.04
2019-04-16T12:06:37.209Z,39.23
2019-04-16T12:07:37.134Z,39.81
2019-04-16T12:08:37.064Z,39.04
2019-04-16T12:09:36.883Z,38.95
2019-04-16T12:10:36.810Z,39.04
2019-04-16T12:11:36.695Z,39.43
2019-04-16T12:12:36.579Z,39.90
2019-04-16T12:13:36.516Z,40.29
2019-04-16T12:14:42.057Z,39.04
2019-04-16T12:15:36.320Z,38.18
2019-04-16T12:16:36.204Z,38.47
2019-04-16T12:17:36.476Z,38.37
2019-04-16T12:18:35.979Z,39.04
2019-04-16T12:19:35.882Z,38.64
2019-04-16T12:20:35.780Z,38.85
2019-04-16T12:21:35.680Z,39.04
2019-04-16T12:22:35.581Z,39.43
2019-04-16T12:23:35.600Z,40.38
2019-04-16T12:24:35.386Z,39.81
2019-04-16T12:25:35.317Z,39.62
2019-04-16T12:26:35.224Z,40.00
2019-04-16T12:27:35.111Z,39.33
2019-04-16T12:28:35.008Z,39.33
2019-04-16T12:29:34.889Z,39.12
2019-04-16T12:30:34.827Z,39.04
2019-04-16T12:31:34.686Z,39.12
2019-04-16T12:32:34.627Z,39.04
2019-04-16T12:33:34.535Z,39.22
2019-04-16T12:34:34.430Z,39.33
2019-04-16T12:35:34.831Z,39.23
2019-04-16T12:36:34.211Z,39.43
2019-04-16T12:37:37.415Z,39.90
2019-04-16T12:38:34.061Z,39.52
2019-04-16T12:39:35.826Z,39.23
2019-04-16T12:40:33.799Z,38.95
2019-04-16T12:41:33.740Z,38.96
2019-04-16T12:42:33.599Z,38.28
2019-04-16T12:43:33.493Z,38.56
2019-04-16T12:44:44.537Z,38.76
2019-04-16T12:45:33.333Z,39.23
2019-04-16T12:46:33.327Z,39.14
2019-04-16T12:47:33.097Z,39.14
2019-04-16T12:48:33.066Z,38.28
2019-04-16T12:49:32.958Z,39.33
2019-04-16T12:50:32.794Z,39.04
2019-04-16T12:51:32.697Z,39.04